メインページ
METAR-TAF:

METAR-TAF

空港 :

ケルマーンシャー, イラン

緯度: 34-16N, 経度: 047-07E, 海抜: 1320m

現時点の気象観測

当レポートは29分前の06:00(UTC)に作成
無風
気温 15°C
湿度 39%
気圧 1021 hPa
視程10km以上
高度4000ftの雲はほとんどない
高度8000ftの千切れ雲あり

METAR: OICC 040600Z 00000KT 9999 FEW040 BKN080 15/01 Q1021 A3015

時間: 10:59 (06:29 UTC)


TAF: 見つかりません

4,000以上の空港の気象観測と天気予報(METAR報とTAF報)

利用可能な観測所は地図上に黄色い丸と赤い丸で示す。

丸の上にカーソルを重ねると観測所名を参照できる。

次にクリックすると気象観測と天気予報を参照できる。

マップの切り替え:黒色「×」印の緑ボタンをクリックして拡大、「-」印の緑ボタンをクリックして縮小、緑色の三角印をクリックして隣りの地図に切り替え


METAR-TAF: